createdAt,value
2024-05-09T00:00:39.605Z,37.20
2024-05-09T00:01:36.627Z,37.60
2024-05-09T00:02:37.606Z,38.00
2024-05-09T00:03:38.531Z,39.50
2024-05-09T00:04:39.428Z,36.50
2024-05-09T00:05:40.580Z,38.10
2024-05-09T00:06:41.146Z,39.40
2024-05-09T00:07:42.059Z,37.40
2024-05-09T00:08:42.968Z,36.70
2024-05-09T00:09:43.853Z,37.30
2024-05-09T00:10:44.789Z,38.90
2024-05-09T00:11:45.784Z,37.60
2024-05-09T00:12:46.206Z,38.60
2024-05-09T00:13:47.162Z,38.30
2024-05-09T00:14:48.032Z,40.20
2024-05-09T00:15:48.913Z,37.90
2024-05-09T00:16:49.831Z,39.80
2024-05-09T00:17:51.037Z,38.40
2024-05-09T00:18:51.531Z,36.60
2024-05-09T00:19:52.455Z,37.20
2024-05-09T00:20:53.340Z,38.00
2024-05-09T00:21:54.230Z,39.00
2024-05-09T00:22:55.161Z,36.50
2024-05-09T00:23:56.025Z,37.50
2024-05-09T00:24:56.924Z,39.10
2024-05-09T00:25:57.895Z,37.40
2024-05-09T00:26:58.761Z,36.60
2024-05-09T00:27:59.678Z,37.90
2024-05-09T00:29:00.596Z,38.10
2024-05-09T00:30:01.535Z,38.10
2024-05-09T00:31:02.400Z,36.80
2024-05-09T00:32:03.550Z,37.20
2024-05-09T00:33:04.718Z,40.40
2024-05-09T00:34:04.899Z,39.50
2024-05-09T00:35:05.368Z,38.30
2024-05-09T00:36:06.220Z,39.40
2024-05-09T00:37:07.100Z,38.50
2024-05-09T00:38:08.291Z,37.90
2024-05-09T00:39:08.753Z,38.30
2024-05-09T00:40:15.116Z,38.00
2024-05-09T00:41:11.425Z,37.30
2024-05-09T00:42:11.319Z,36.80
2024-05-09T00:43:13.555Z,38.70
2024-05-09T00:44:13.041Z,38.50
2024-05-09T00:45:13.494Z,36.60
2024-05-09T00:46:14.376Z,37.40
2024-05-09T00:47:15.559Z,36.80
2024-05-09T00:48:18.719Z,38.20
2024-05-09T00:49:16.864Z,37.70
2024-05-09T00:50:23.006Z,36.90
2024-05-09T00:51:19.089Z,38.00
2024-05-09T00:52:18.918Z,36.90
2024-05-09T00:53:19.863Z,38.70
2024-05-09T00:54:20.738Z,36.80
2024-05-09T00:55:21.629Z,37.80
2024-05-09T00:56:22.599Z,37.90
2024-05-09T00:57:23.459Z,37.60
2024-05-09T01:00:22.564Z,38.40
2024-05-09T01:01:14.635Z,40.40
2024-05-09T01:02:14.590Z,39.20
2024-05-09T01:03:15.696Z,37.30
2024-05-09T01:04:16.220Z,39.10
2024-05-09T01:05:17.247Z,40.10
2024-05-09T01:06:17.613Z,39.50
2024-05-09T01:07:18.498Z,39.20
2024-05-09T01:08:19.413Z,39.40
2024-05-09T01:09:20.276Z,39.50
2024-05-09T01:10:27.733Z,38.90
2024-05-09T01:11:23.026Z,39.70
2024-05-09T01:14:23.160Z,42.10
2024-05-09T01:15:23.595Z,42.00
2024-05-09T01:16:24.053Z,43.70
2024-05-09T01:17:25.166Z,41.80
2024-05-09T01:18:25.722Z,42.70
2024-05-09T01:19:26.434Z,43.00
2024-05-09T01:20:36.961Z,41.80
2024-05-09T01:21:28.713Z,42.60
2024-05-09T01:22:28.594Z,47.00
2024-05-09T01:23:29.492Z,47.20
2024-05-09T01:24:30.354Z,47.40
2024-05-09T01:25:31.377Z,44.30
2024-05-09T01:26:31.837Z,43.90
2024-05-09T01:27:32.249Z,45.50
2024-05-09T01:28:33.128Z,47.00
2024-05-09T01:29:34.055Z,44.80
2024-05-09T01:30:37.083Z,44.20
2024-05-09T01:31:35.807Z,44.90
2024-05-09T01:32:36.843Z,43.50
2024-05-09T01:33:37.665Z,43.80
2024-05-09T01:34:38.182Z,45.00
2024-05-09T01:35:39.501Z,46.40
2024-05-09T01:36:39.913Z,46.60
2024-05-09T01:37:40.808Z,45.30
2024-05-09T01:38:41.726Z,45.60
2024-05-09T01:39:42.615Z,47.10
2024-05-09T01:40:43.559Z,43.80
2024-05-09T01:41:44.425Z,45.70
2024-05-09T01:42:45.310Z,46.20
2024-05-09T01:43:46.237Z,45.00
2024-05-09T01:44:47.100Z,45.10
2024-05-09T01:45:48.009Z,48.10
2024-05-09T01:46:48.958Z,48.30
2024-05-09T01:47:49.934Z,44.60
2024-05-09T01:48:50.408Z,47.10
2024-05-09T01:49:51.318Z,44.60
2024-05-09T01:50:52.206Z,47.30
2024-05-09T01:51:53.121Z,47.30
2024-05-09T01:52:53.998Z,49.40
2024-05-09T01:53:54.878Z,46.60
2024-05-09T01:54:55.762Z,48.70
2024-05-09T01:55:56.712Z,48.70
2024-05-09T01:56:57.545Z,49.00
2024-05-09T01:57:58.425Z,49.10
2024-05-09T01:58:59.445Z,48.00
2024-05-09T01:59:59.809Z,47.50
2024-05-09T02:01:00.799Z,48.30
2024-05-09T02:02:01.873Z,50.90
2024-05-09T02:03:02.558Z,49.60
2024-05-09T02:04:03.311Z,48.90
2024-05-09T02:05:03.902Z,49.60
2024-05-09T02:06:04.437Z,51.40
2024-05-09T02:07:04.859Z,51.00
2024-05-09T02:08:05.776Z,49.40
2024-05-09T02:09:06.621Z,52.80
2024-05-09T02:10:13.792Z,52.30
2024-05-09T02:11:09.398Z,51.00
2024-05-09T02:12:09.008Z,49.70
2024-05-09T02:13:09.523Z,52.30
2024-05-09T02:14:10.470Z,53.20
2024-05-09T02:15:11.340Z,51.10
2024-05-09T02:16:12.251Z,53.60
2024-05-09T02:17:13.225Z,52.90
2024-05-09T02:18:14.482Z,54.50
2024-05-09T02:19:15.162Z,55.00
2024-05-09T02:20:22.623Z,53.10
2024-05-09T02:21:17.423Z,54.20
2024-05-09T02:22:17.266Z,55.20
2024-05-09T02:23:18.311Z,51.40
2024-05-09T02:24:18.699Z,54.70
2024-05-09T02:25:19.576Z,53.20
2024-05-09T02:26:20.504Z,54.50
2024-05-09T02:27:21.415Z,57.60
2024-05-09T02:28:22.279Z,54.30
2024-05-09T02:29:23.239Z,55.10
2024-05-09T02:30:31.126Z,55.90
2024-05-09T02:31:25.897Z,57.70
2024-05-09T02:32:25.923Z,56.90
2024-05-09T02:33:26.594Z,53.90
2024-05-09T02:34:27.176Z,54.60
2024-05-09T02:35:28.143Z,55.70
2024-05-09T02:36:29.026Z,57.90
2024-05-09T02:37:29.908Z,57.20
2024-05-09T02:38:31.014Z,58.70
2024-05-09T02:39:31.450Z,56.80
2024-05-09T02:40:37.335Z,60.20
2024-05-09T02:41:34.182Z,56.30
2024-05-09T02:42:34.080Z,60.60
2024-05-09T02:43:34.959Z,59.50
2024-05-09T02:44:35.851Z,60.70
2024-05-09T02:45:36.753Z,58.40
2024-05-09T02:46:37.640Z,59.80
2024-05-09T02:47:38.674Z,62.20
2024-05-09T02:48:39.215Z,63.10
2024-05-09T02:49:40.125Z,60.80
2024-05-09T02:50:41.293Z,63.50
2024-05-09T02:51:41.813Z,61.00
2024-05-09T02:52:42.707Z,61.00
2024-05-09T02:53:43.610Z,62.00
2024-05-09T02:54:44.481Z,60.60
2024-05-09T02:55:45.393Z,63.70
2024-05-09T02:56:46.266Z,63.70
2024-05-09T02:57:47.149Z,67.70
2024-05-09T02:58:48.079Z,66.30
2024-05-09T02:59:48.936Z,62.20
2024-05-09T03:00:49.941Z,63.10
2024-05-09T03:01:50.791Z,68.00
2024-05-09T03:02:51.339Z,65.10
2024-05-09T03:03:51.980Z,67.50
2024-05-09T03:04:52.566Z,66.60
2024-05-09T03:05:53.025Z,65.80
2024-05-09T03:06:53.894Z,69.80
2024-05-09T03:07:54.859Z,63.50
2024-05-09T03:08:55.734Z,65.80
2024-05-09T03:09:56.618Z,64.20
2024-05-09T03:10:57.539Z,64.20
2024-05-09T03:11:58.594Z,67.00
2024-05-09T03:12:58.987Z,68.10
2024-05-09T03:13:59.926Z,64.60
2024-05-09T03:15:00.810Z,63.50
2024-05-09T03:16:01.690Z,66.20
2024-05-09T03:17:02.646Z,64.70
2024-05-09T03:18:03.788Z,68.30
2024-05-09T03:19:04.701Z,64.70
2024-05-09T03:20:06.953Z,64.60
2024-05-09T03:21:06.054Z,62.40
2024-05-09T03:22:06.502Z,64.20
2024-05-09T03:23:07.868Z,66.60
2024-05-09T03:24:08.028Z,64.80
2024-05-09T03:25:08.918Z,65.80
2024-05-09T03:26:09.854Z,67.20
2024-05-09T03:27:10.863Z,63.10
2024-05-09T03:28:11.248Z,64.60
2024-05-09T03:29:12.270Z,62.30
2024-05-09T03:30:22.144Z,67.30
2024-05-09T03:31:14.426Z,70.80
2024-05-09T03:32:14.549Z,71.80
2024-05-09T03:33:15.909Z,68.80
2024-05-09T03:34:15.599Z,69.80
2024-05-09T03:35:16.549Z,67.30
2024-05-09T03:36:17.447Z,65.50
2024-05-09T03:37:18.353Z,64.00
2024-05-09T03:38:19.294Z,69.10
2024-05-09T03:39:20.130Z,69.20
2024-05-09T03:40:26.207Z,70.90
2024-05-09T03:41:22.901Z,72.10
2024-05-09T03:42:22.783Z,70.30
2024-05-09T03:43:23.671Z,72.40
2024-05-09T03:44:24.568Z,70.80
2024-05-09T03:45:25.437Z,74.30
2024-05-09T03:46:26.318Z,80.80
2024-05-09T03:47:27.431Z,74.60
2024-05-09T03:48:27.963Z,72.30
2024-05-09T03:49:28.422Z,66.30
2024-05-09T03:50:33.787Z,70.80
2024-05-09T03:51:31.035Z,67.90
2024-05-09T03:52:30.932Z,64.70
2024-05-09T03:53:31.995Z,66.50
2024-05-09T03:54:32.471Z,68.80
2024-05-09T03:55:33.371Z,62.00
2024-05-09T03:56:34.366Z,65.20
2024-05-09T03:57:34.799Z,63.40
2024-05-09T03:58:35.679Z,62.40
2024-05-09T03:59:36.669Z,62.00
2024-05-09T04:00:39.536Z,64.40
2024-05-09T04:01:38.228Z,61.90
2024-05-09T04:02:39.472Z,64.00
2024-05-09T04:03:40.045Z,64.00
2024-05-09T04:04:40.482Z,63.60
2024-05-09T04:05:42.700Z,63.30
2024-05-09T04:06:41.899Z,63.60
2024-05-09T04:07:42.796Z,60.90
2024-05-09T04:08:43.739Z,62.90
2024-05-09T04:09:44.595Z,63.70
2024-05-09T04:10:45.512Z,60.50
2024-05-09T04:11:46.582Z,60.30
2024-05-09T04:12:47.018Z,59.80
2024-05-09T04:13:47.936Z,60.60
2024-05-09T04:14:48.782Z,59.70
2024-05-09T04:15:49.668Z,59.30
2024-05-09T04:16:50.613Z,58.30
2024-05-09T04:17:51.825Z,60.70
2024-05-09T04:18:52.440Z,57.60
2024-05-09T04:19:52.890Z,57.50
2024-05-09T04:20:53.789Z,59.00
2024-05-09T04:21:54.635Z,56.80
2024-05-09T04:22:55.572Z,57.20
2024-05-09T04:23:56.428Z,58.20
2024-05-09T04:24:57.304Z,60.20
2024-05-09T04:25:58.252Z,61.00
2024-05-09T04:26:59.132Z,56.80
2024-05-09T04:28:00.301Z,57.20
2024-05-09T04:29:00.694Z,59.00
2024-05-09T04:30:01.614Z,57.70
2024-05-09T04:31:02.486Z,53.30
2024-05-09T04:32:03.430Z,54.80
2024-05-09T04:33:04.527Z,50.30
2024-05-09T04:34:05.170Z,50.30
2024-05-09T04:35:05.741Z,54.60
2024-05-09T04:36:06.596Z,50.90
2024-05-09T04:37:07.468Z,51.20
2024-05-09T04:38:08.421Z,53.40
2024-05-09T04:39:09.304Z,46.90
2024-05-09T04:40:17.203Z,51.40
2024-05-09T04:41:11.981Z,50.70
2024-05-09T04:42:11.826Z,47.30
2024-05-09T04:43:12.835Z,48.80
2024-05-09T04:44:13.710Z,49.90
2024-05-09T04:45:14.594Z,50.00
2024-05-09T04:46:15.465Z,49.90
2024-05-09T04:47:16.539Z,47.00
2024-05-09T04:48:17.316Z,47.70
2024-05-09T04:49:18.009Z,47.70
2024-05-09T04:50:28.915Z,47.50
2024-05-09T04:51:20.276Z,46.30
2024-05-09T04:52:20.151Z,45.70
2024-05-09T04:53:21.098Z,49.50
2024-05-09T04:54:30.094Z,49.20
2024-05-09T04:55:23.722Z,47.80
2024-05-09T04:56:23.654Z,44.90
2024-05-09T04:57:24.511Z,46.70
2024-05-09T04:58:25.420Z,48.60
2024-05-09T04:59:26.351Z,46.30
2024-05-09T05:00:32.677Z,46.80
2024-05-09T05:01:29.007Z,46.70
2024-05-09T05:02:28.951Z,43.70
2024-05-09T05:03:30.082Z,43.20
2024-05-09T05:04:30.473Z,44.80
2024-05-09T05:05:31.457Z,44.80
2024-05-09T05:06:31.871Z,43.20
2024-05-09T05:07:32.762Z,44.30
2024-05-09T05:08:33.836Z,43.30
2024-05-09T05:09:34.241Z,41.20
2024-05-09T05:10:36.689Z,41.80
2024-05-09T05:11:35.949Z,40.00
2024-05-09T05:12:36.484Z,42.90
2024-05-09T05:13:40.103Z,43.20
2024-05-09T05:14:38.299Z,39.10
2024-05-09T05:15:39.155Z,40.80
2024-05-09T05:16:40.042Z,41.90
2024-05-09T05:17:41.204Z,41.40
2024-05-09T05:18:41.964Z,41.70
2024-05-09T05:19:42.854Z,43.10
2024-05-09T05:20:43.841Z,40.90
2024-05-09T05:21:44.285Z,38.80
2024-05-09T05:22:45.212Z,40.90
2024-05-09T05:23:46.147Z,42.80
2024-05-09T05:24:46.994Z,42.90
2024-05-09T05:25:48.082Z,39.80
2024-05-09T05:26:48.680Z,41.30
2024-05-09T05:27:49.513Z,42.40
2024-05-09T05:28:50.691Z,44.00
2024-05-09T05:29:51.056Z,41.00
2024-05-09T05:30:51.967Z,40.70
2024-05-09T05:31:53.033Z,42.50
2024-05-09T05:32:53.643Z,40.60
2024-05-09T05:33:54.218Z,43.40
2024-05-09T05:34:54.650Z,42.60
2024-05-09T05:35:55.495Z,43.80
2024-05-09T05:36:56.377Z,42.00
2024-05-09T05:37:57.305Z,41.20
2024-05-09T05:38:58.216Z,42.30
2024-05-09T05:39:59.071Z,41.00
2024-05-09T05:41:00.054Z,41.00
2024-05-09T05:42:00.926Z,41.10
2024-05-09T05:43:01.819Z,42.80
2024-05-09T05:44:02.732Z,44.00
2024-05-09T05:45:05.111Z,43.80
2024-05-09T05:46:04.396Z,41.60
2024-05-09T05:47:05.296Z,45.00
2024-05-09T05:48:06.958Z,42.60
2024-05-09T05:49:07.001Z,42.10
2024-05-09T05:50:20.433Z,40.20
2024-05-09T05:51:09.240Z,42.20
2024-05-09T05:52:09.079Z,43.80
2024-05-09T05:53:10.646Z,42.70
2024-05-09T05:54:10.656Z,44.20
2024-05-09T05:55:11.566Z,41.50
2024-05-09T05:56:12.525Z,39.60
2024-05-09T05:57:13.398Z,38.20
2024-05-09T05:58:14.292Z,42.10
2024-05-09T05:59:15.702Z,38.00
2024-05-09T06:00:25.948Z,38.30
2024-05-09T06:01:17.550Z,39.90
2024-05-09T06:02:17.511Z,40.50
2024-05-09T06:03:17.983Z,39.80
2024-05-09T06:04:18.995Z,41.30
2024-05-09T06:05:19.889Z,40.60
2024-05-09T06:06:20.779Z,39.70
2024-05-09T06:07:21.659Z,37.40
2024-05-09T06:08:22.593Z,38.90
2024-05-09T06:09:23.484Z,37.90
2024-05-09T06:10:26.488Z,43.20
2024-05-09T06:11:26.295Z,39.60
2024-05-09T06:12:25.891Z,38.20
2024-05-09T06:13:26.325Z,40.30
2024-05-09T06:14:27.274Z,34.70
2024-05-09T06:15:28.140Z,37.90
2024-05-09T06:16:29.023Z,36.60
2024-05-09T06:17:29.990Z,37.40
2024-05-09T06:18:30.680Z,38.00
2024-05-09T06:19:31.247Z,37.80
2024-05-09T06:20:35.916Z,35.60
2024-05-09T06:21:33.443Z,37.10
2024-05-09T06:22:33.309Z,34.30
2024-05-09T06:23:34.342Z,33.30
2024-05-09T06:24:34.789Z,30.50
2024-05-09T06:25:36.086Z,29.70
2024-05-09T06:26:36.638Z,32.20
2024-05-09T06:27:37.503Z,31.80
2024-05-09T06:28:38.372Z,33.40
2024-05-09T06:29:39.585Z,32.20
2024-05-09T06:30:41.798Z,33.50
2024-05-09T06:31:40.833Z,33.70
2024-05-09T06:32:41.816Z,33.30
2024-05-09T06:33:42.799Z,34.90
2024-05-09T06:34:43.345Z,33.80
2024-05-09T06:35:44.609Z,34.20
2024-05-09T06:36:45.170Z,34.20
2024-05-09T06:37:46.084Z,34.00
2024-05-09T06:38:46.988Z,34.20
2024-05-09T06:39:47.885Z,31.00
2024-05-09T06:40:48.838Z,30.80
2024-05-09T06:41:49.758Z,32.10
2024-05-09T06:42:50.650Z,32.10
2024-05-09T06:43:51.591Z,29.60
2024-05-09T06:44:52.472Z,29.60
2024-05-09T06:45:53.344Z,29.30
2024-05-09T06:46:55.753Z,30.20
2024-05-09T06:47:55.012Z,30.70
2024-05-09T06:48:55.590Z,30.40
2024-05-09T06:49:56.151Z,27.10
2024-05-09T06:50:57.071Z,27.30
2024-05-09T06:51:57.932Z,26.90
2024-05-09T06:54:21.776Z,31.10
2024-05-09T06:55:22.686Z,28.50
2024-05-09T06:56:23.629Z,29.50
2024-05-09T06:57:24.485Z,29.30
2024-05-09T06:58:25.361Z,29.00
2024-05-09T06:59:26.294Z,28.40
2024-05-09T07:00:35.122Z,27.30
2024-05-09T07:01:29.050Z,27.20
2024-05-09T07:02:28.526Z,27.40
2024-05-09T07:03:29.566Z,29.20
2024-05-09T07:04:30.093Z,29.80
2024-05-09T07:05:30.589Z,28.30
2024-05-09T07:06:31.459Z,25.80
2024-05-09T07:07:32.347Z,27.20
2024-05-09T07:08:33.417Z,26.80
2024-05-09T07:09:33.771Z,27.70
2024-05-09T07:10:35.949Z,24.90
2024-05-09T07:11:35.876Z,27.50
2024-05-09T07:12:36.357Z,27.80
2024-05-09T07:13:37.224Z,26.40
2024-05-09T07:14:38.764Z,27.00
2024-05-09T07:15:38.679Z,26.20
2024-05-09T07:16:39.561Z,27.30
2024-05-09T07:17:40.643Z,28.20
2024-05-09T07:18:41.339Z,26.70
2024-05-09T07:19:41.931Z,26.30
2024-05-09T07:20:42.990Z,28.20
2024-05-09T07:21:43.418Z,25.50
2024-05-09T07:22:44.302Z,24.10
2024-05-09T07:23:47.394Z,23.50
2024-05-09T07:24:45.886Z,26.30
2024-05-09T07:25:47.007Z,22.60
2024-05-09T07:26:47.489Z,23.00
2024-05-09T07:27:48.352Z,25.40
2024-05-09T07:28:49.271Z,25.10
2024-05-09T07:29:49.912Z,23.20
2024-05-09T07:30:50.889Z,23.90
2024-05-09T07:31:51.328Z,23.80
2024-05-09T07:32:52.350Z,23.60
2024-05-09T07:33:52.783Z,20.90
2024-05-09T07:34:53.631Z,20.30
2024-05-09T07:35:54.541Z,20.90
2024-05-09T07:36:55.413Z,22.60
2024-05-09T07:37:56.348Z,21.70
2024-05-09T07:38:57.218Z,23.00
2024-05-09T07:39:58.105Z,20.80
2024-05-09T07:40:59.049Z,25.30
2024-05-09T07:41:59.920Z,22.60
2024-05-09T07:43:00.806Z,21.00
2024-05-09T07:44:01.725Z,20.40
2024-05-09T07:45:21.238Z,21.30
2024-05-09T07:47:03.954Z,21.50
2024-05-09T07:48:14.398Z,21.30
2024-05-09T07:52:22.657Z,21.90
2024-05-09T07:53:22.141Z,19.90
2024-05-09T07:53:36.973Z,20.50
2024-05-09T07:54:11.048Z,19.00
2024-05-09T07:55:10.273Z,20.60
2024-05-09T07:56:11.974Z,19.90
2024-05-09T07:57:11.258Z,19.30
2024-05-09T07:58:12.265Z,17.90
2024-05-09T07:59:12.652Z,18.40
2024-05-09T08:00:17.297Z,18.00
2024-05-09T08:01:15.431Z,19.40
2024-05-09T08:02:15.065Z,17.40
2024-05-09T08:03:15.639Z,16.60
2024-05-09T08:04:16.113Z,17.60
2024-05-09T08:05:16.843Z,16.40
2024-05-09T08:06:17.320Z,17.10
2024-05-09T08:07:18.308Z,18.80
2024-05-09T08:08:18.715Z,21.00
2024-05-09T08:09:21.350Z,19.20
2024-05-09T08:10:24.517Z,19.30
2024-05-09T08:11:21.978Z,21.80
2024-05-09T08:12:21.828Z,19.90
2024-05-09T08:13:23.033Z,15.30
2024-05-09T08:14:23.572Z,16.90
2024-05-09T08:15:24.445Z,16.50
2024-05-09T08:16:25.355Z,15.30
2024-05-09T08:17:26.322Z,15.20
2024-05-09T08:18:26.883Z,15.20
2024-05-09T08:19:27.317Z,15.20
2024-05-09T08:20:33.455Z,14.90
2024-05-09T08:21:30.060Z,14.70
2024-05-09T08:22:29.935Z,14.50
2024-05-09T08:23:30.825Z,14.40
2024-05-09T08:24:31.753Z,14.40
2024-05-09T08:25:32.598Z,15.00
2024-05-09T08:26:33.483Z,15.10
2024-05-09T08:27:34.393Z,13.70
2024-05-09T08:28:35.270Z,13.40
2024-05-09T08:29:36.190Z,14.40
2024-05-09T08:30:38.212Z,15.10
2024-05-09T08:31:37.961Z,14.30
2024-05-09T08:32:38.579Z,15.20
2024-05-09T08:33:39.562Z,16.00
2024-05-09T08:34:40.046Z,15.20
2024-05-09T08:35:40.901Z,14.80
2024-05-09T08:36:41.821Z,15.40
2024-05-09T08:37:42.795Z,15.40
2024-05-09T08:38:43.180Z,14.90
2024-05-09T08:39:44.115Z,15.60
2024-05-09T08:40:45.032Z,13.80
2024-05-09T08:41:45.938Z,16.90
2024-05-09T08:42:46.862Z,14.30
2024-05-09T08:43:47.750Z,13.90
2024-05-09T08:44:48.619Z,13.90
2024-05-09T08:45:49.679Z,13.10
2024-05-09T08:46:50.075Z,14.10
2024-05-09T08:47:51.098Z,14.30
2024-05-09T08:48:51.637Z,13.70
2024-05-09T08:49:52.116Z,13.50
2024-05-09T08:50:53.198Z,14.30
2024-05-09T08:51:53.743Z,14.00
2024-05-09T08:52:54.617Z,13.00
2024-05-09T08:53:55.505Z,13.80
2024-05-09T08:54:56.424Z,12.90
2024-05-09T08:55:57.288Z,15.10
2024-05-09T08:56:58.171Z,15.10
2024-05-09T08:57:59.173Z,14.80
2024-05-09T08:58:59.551Z,14.40
2024-05-09T09:00:00.573Z,15.20
2024-05-09T09:01:01.038Z,14.60
2024-05-09T09:02:02.040Z,14.40
2024-05-09T09:03:02.487Z,13.10
2024-05-09T09:04:03.515Z,14.90
2024-05-09T09:05:04.075Z,14.40
2024-05-09T09:06:04.436Z,16.10
2024-05-09T09:07:05.368Z,14.60
2024-05-09T09:08:06.234Z,16.20
2024-05-09T09:09:07.114Z,15.00
2024-05-09T09:10:08.775Z,16.30
2024-05-09T09:11:08.701Z,13.80
2024-05-09T09:12:10.693Z,14.60
2024-05-09T09:13:10.274Z,14.80
2024-05-09T09:14:10.622Z,14.70
2024-05-09T09:15:11.539Z,13.40
2024-05-09T09:16:12.544Z,14.80
2024-05-09T09:17:12.974Z,16.70
2024-05-09T09:18:13.960Z,14.30
2024-05-09T09:19:14.441Z,14.60
2024-05-09T09:20:19.378Z,15.90
2024-05-09T09:21:16.626Z,15.50
2024-05-09T09:22:16.584Z,16.40
2024-05-09T09:23:17.426Z,15.90
2024-05-09T09:24:18.311Z,16.60
2024-05-09T09:25:19.243Z,15.40
2024-05-09T09:26:20.120Z,15.40
2024-05-09T09:27:20.999Z,15.50
2024-05-09T09:28:21.895Z,15.90
2024-05-09T09:29:22.794Z,16.00
2024-05-09T09:30:34.550Z,14.70
2024-05-09T09:31:25.534Z,16.90
2024-05-09T09:32:24.986Z,16.10
2024-05-09T09:33:25.879Z,15.20
2024-05-09T09:34:26.949Z,16.90
2024-05-09T09:35:27.419Z,15.90
2024-05-09T09:36:28.343Z,17.10
2024-05-09T09:37:29.223Z,16.00
2024-05-09T09:38:30.089Z,15.90
2024-05-09T09:39:31.013Z,16.30
2024-05-09T09:40:33.935Z,15.40
2024-05-09T09:41:32.783Z,16.40
2024-05-09T09:42:33.689Z,16.70
2024-05-09T09:43:34.650Z,16.80
2024-05-09T09:44:37.375Z,15.90
2024-05-09T09:45:36.440Z,16.70
2024-05-09T09:46:36.919Z,15.50
2024-05-09T09:47:37.884Z,17.20
2024-05-09T09:48:38.872Z,17.20
2024-05-09T09:49:39.859Z,16.20
2024-05-09T09:50:40.738Z,14.60
2024-05-09T09:51:41.652Z,16.00
2024-05-09T09:52:42.528Z,15.50
2024-05-09T09:53:43.386Z,14.40
2024-05-09T09:54:44.346Z,15.40
2024-05-09T09:55:45.244Z,16.60
2024-05-09T09:56:46.113Z,16.20
2024-05-09T09:57:47.022Z,15.40
2024-05-09T09:58:47.880Z,16.80
2024-05-09T09:59:48.768Z,16.70
2024-05-09T10:00:49.793Z,16.80
2024-05-09T10:01:50.438Z,15.70
2024-05-09T10:02:50.854Z,17.60
2024-05-09T10:03:51.822Z,16.10
2024-05-09T10:04:52.349Z,17.60
2024-05-09T10:05:52.796Z,17.30
2024-05-09T10:06:53.739Z,16.80
2024-05-09T10:07:54.877Z,16.80
2024-05-09T10:08:55.232Z,15.00
2024-05-09T10:09:56.151Z,15.90
2024-05-09T10:10:57.118Z,16.70
2024-05-09T10:12:00.421Z,16.50
2024-05-09T10:12:58.736Z,15.50
2024-05-09T10:13:59.576Z,15.20
2024-05-09T10:15:00.485Z,16.40
2024-05-09T10:16:01.383Z,15.20
2024-05-09T10:17:02.251Z,15.10
2024-05-09T10:18:03.352Z,17.20
2024-05-09T10:19:03.871Z,16.20
2024-05-09T10:20:11.718Z,17.40
2024-05-09T10:21:06.161Z,15.80
2024-05-09T10:22:06.189Z,16.00
2024-05-09T10:23:06.619Z,16.80
2024-05-09T10:24:07.499Z,17.20
2024-05-09T10:25:08.375Z,16.80
2024-05-09T10:26:09.265Z,16.80
2024-05-09T10:27:10.145Z,16.00
2024-05-09T10:28:11.155Z,16.00
2024-05-09T10:29:11.573Z,16.40
2024-05-09T10:30:17.872Z,16.50
2024-05-09T10:31:14.356Z,16.60
2024-05-09T10:32:13.769Z,16.40
2024-05-09T10:33:14.792Z,15.90
2024-05-09T10:34:15.193Z,16.80
2024-05-09T10:35:16.107Z,15.80
2024-05-09T10:36:17.013Z,16.60
2024-05-09T10:37:17.932Z,17.30
2024-05-09T10:38:18.812Z,17.60
2024-05-09T10:39:19.666Z,17.60
2024-05-09T10:40:26.326Z,16.60
2024-05-09T10:41:22.340Z,16.10
2024-05-09T10:42:22.217Z,14.90
2024-05-09T10:43:23.176Z,15.60
2024-05-09T10:44:24.042Z,16.10
2024-05-09T10:45:24.925Z,14.60
2024-05-09T10:46:25.861Z,17.00
2024-05-09T10:47:26.809Z,16.00
2024-05-09T10:48:28.081Z,16.40
2024-05-09T10:49:28.566Z,16.30
2024-05-09T10:50:34.054Z,17.20
2024-05-09T10:51:31.239Z,16.40
2024-05-09T10:52:31.094Z,16.40
2024-05-09T10:53:32.037Z,16.00
2024-05-09T10:54:32.894Z,16.20
2024-05-09T10:55:33.790Z,16.50
2024-05-09T10:56:34.668Z,17.10
2024-05-09T10:57:35.574Z,16.10
2024-05-09T10:58:36.440Z,17.60
2024-05-09T10:59:37.325Z,14.90
2024-05-09T11:00:38.419Z,16.40
2024-05-09T11:01:38.976Z,18.30
2024-05-09T11:02:39.514Z,16.30
2024-05-09T11:03:40.406Z,15.60
2024-05-09T11:04:41.040Z,17.70
2024-05-09T11:05:41.647Z,16.70
2024-05-09T11:06:42.121Z,15.40
2024-05-09T11:07:42.991Z,17.20
2024-05-09T11:08:43.892Z,16.80
2024-05-09T11:09:44.795Z,17.80
2024-05-09T11:10:45.723Z,16.50
2024-05-09T11:11:46.551Z,17.00
2024-05-09T11:12:46.988Z,17.90
2024-05-09T11:13:47.861Z,16.20
2024-05-09T11:14:48.708Z,15.80
2024-05-09T11:15:49.621Z,15.40
2024-05-09T11:16:50.525Z,15.90
2024-05-09T11:17:51.459Z,15.10
2024-05-09T11:18:52.762Z,16.60
2024-05-09T11:19:53.285Z,15.60
2024-05-09T11:20:54.167Z,17.30
2024-05-09T11:21:55.157Z,17.80
2024-05-09T11:22:56.010Z,16.00
2024-05-09T11:23:56.928Z,16.70
2024-05-09T11:24:57.804Z,16.10
2024-05-09T11:25:58.795Z,16.30
2024-05-09T11:26:59.234Z,15.80
2024-05-09T11:28:00.228Z,17.70
2024-05-09T11:29:00.619Z,19.70
2024-05-09T11:30:01.527Z,15.20
2024-05-09T11:31:02.429Z,17.80
2024-05-09T11:32:03.322Z,15.70
2024-05-09T11:33:04.252Z,15.50
2024-05-09T11:34:05.151Z,14.60
2024-05-09T11:35:06.018Z,15.70
2024-05-09T11:36:06.926Z,16.00
2024-05-09T11:37:07.888Z,15.20
2024-05-09T11:38:08.765Z,16.10
2024-05-09T11:39:09.665Z,14.30
2024-05-09T11:40:16.835Z,15.30
2024-05-09T11:41:12.316Z,15.00
2024-05-09T11:42:12.196Z,14.90
2024-05-09T11:43:13.135Z,15.30
2024-05-09T11:44:13.984Z,15.50
2024-05-09T11:45:14.869Z,15.10
2024-05-09T11:46:15.940Z,16.40
2024-05-09T11:47:16.500Z,14.90
2024-05-09T11:48:16.973Z,14.80
2024-05-09T11:49:17.639Z,16.80
2024-05-09T11:50:26.840Z,15.40
2024-05-09T11:51:19.865Z,16.10
2024-05-09T11:52:19.779Z,16.00
2024-05-09T11:53:20.633Z,15.50
2024-05-09T11:54:21.539Z,15.10
2024-05-09T11:55:25.639Z,15.80
2024-05-09T11:56:24.181Z,16.90
2024-05-09T11:57:24.063Z,15.40
2024-05-09T11:58:24.995Z,14.10
2024-05-09T11:59:25.845Z,16.10
2024-05-09T12:00:34.078Z,15.90
2024-05-09T12:01:28.686Z,16.10
2024-05-09T12:02:28.140Z,15.00
2024-05-09T12:03:29.102Z,14.70
2024-05-09T12:04:29.711Z,15.20
2024-05-09T12:05:30.306Z,14.30
2024-05-09T12:06:30.841Z,15.40
2024-05-09T12:07:31.763Z,14.60
2024-05-09T12:08:32.675Z,16.10
2024-05-09T12:09:33.614Z,14.30
2024-05-09T12:10:36.226Z,15.80
2024-05-09T12:11:35.280Z,14.90
2024-05-09T12:12:37.385Z,14.90
2024-05-09T12:13:37.016Z,16.50
2024-05-09T12:14:37.846Z,15.90
2024-05-09T12:15:39.268Z,16.10
2024-05-09T12:16:39.392Z,14.30
2024-05-09T12:17:39.916Z,15.00
2024-05-09T12:18:40.361Z,14.70
2024-05-09T12:19:41.308Z,15.40
2024-05-09T12:20:42.224Z,15.80
2024-05-09T12:21:43.110Z,14.50
2024-05-09T12:22:44.001Z,15.70
2024-05-09T12:23:44.894Z,15.40
2024-05-09T12:24:45.830Z,14.90
2024-05-09T12:25:46.689Z,14.90
2024-05-09T12:26:47.569Z,14.30
2024-05-09T12:27:48.555Z,15.30
2024-05-09T12:28:49.393Z,15.00
2024-05-09T12:29:50.278Z,14.90
2024-05-09T12:30:51.204Z,14.70
2024-05-09T12:31:52.115Z,14.90
2024-05-09T12:32:53.288Z,14.50
2024-05-09T12:33:53.905Z,14.80
2024-05-09T12:34:54.319Z,15.60
2024-05-09T12:35:55.205Z,15.00
2024-05-09T12:36:56.138Z,14.30
2024-05-09T12:37:56.998Z,15.50
2024-05-09T12:38:57.888Z,14.60
2024-05-09T12:39:58.820Z,14.30
2024-05-09T12:40:59.844Z,14.70
2024-05-09T12:42:00.275Z,15.20
2024-05-09T12:43:01.382Z,14.00
2024-05-09T12:44:01.737Z,14.30
2024-05-09T12:45:02.631Z,15.20
2024-05-09T12:46:03.576Z,14.70
2024-05-09T12:47:04.455Z,15.60
2024-05-09T12:48:05.537Z,13.80
2024-05-09T12:49:06.068Z,15.50
2024-05-09T12:50:10.774Z,15.50
2024-05-09T12:51:08.233Z,14.20
2024-05-09T12:52:08.216Z,13.50
2024-05-09T12:54:21.461Z,15.20
2024-05-09T12:55:22.092Z,13.60
2024-05-09T12:56:22.972Z,15.90
2024-05-09T12:57:23.854Z,15.00
2024-05-09T12:58:24.940Z,14.90
2024-05-09T12:59:25.797Z,15.40
2024-05-09T13:00:31.564Z,16.00
2024-05-09T13:01:28.490Z,15.20
2024-05-09T13:02:28.533Z,14.90
2024-05-09T13:03:29.196Z,15.50
2024-05-09T13:04:29.767Z,15.70
2024-05-09T13:05:30.538Z,14.80
2024-05-09T13:06:31.005Z,14.30
2024-05-09T13:07:31.890Z,13.30
2024-05-09T13:08:32.769Z,14.90
2024-05-09T13:09:33.708Z,13.50
2024-05-09T13:10:34.708Z,13.30
2024-05-09T13:11:35.139Z,14.60
2024-05-09T13:12:36.029Z,13.90